sensor_id;sensor_type;location;lat;lon;timestamp;P1;durP1;ratioP1;P2;durP2;ratioP2
9821;SDS011;4950;46.042;14.472;2022-08-30T00:02:32;4.38;;;3.97;;
9821;SDS011;4950;46.042;14.472;2022-08-30T00:05:01;5.10;;;4.20;;
9821;SDS011;4950;46.042;14.472;2022-08-30T00:07:28;4.05;;;3.65;;
9821;SDS011;4950;46.042;14.472;2022-08-30T00:09:55;4.53;;;3.70;;
9821;SDS011;4950;46.042;14.472;2022-08-30T00:12:22;4.93;;;4.05;;
9821;SDS011;4950;46.042;14.472;2022-08-30T00:14:49;4.57;;;4.18;;
9821;SDS011;4950;46.042;14.472;2022-08-30T00:17:16;5.03;;;4.15;;
9821;SDS011;4950;46.042;14.472;2022-08-30T00:19:43;4.30;;;3.80;;
9821;SDS011;4950;46.042;14.472;2022-08-30T00:22:11;3.95;;;3.55;;
9821;SDS011;4950;46.042;14.472;2022-08-30T00:24:38;5.10;;;3.58;;
9821;SDS011;4950;46.042;14.472;2022-08-30T00:27:05;4.40;;;3.40;;
9821;SDS011;4950;46.042;14.472;2022-08-30T00:29:31;5.40;;;3.95;;
9821;SDS011;4950;46.042;14.472;2022-08-30T00:31:58;3.80;;;3.40;;
9821;SDS011;4950;46.042;14.472;2022-08-30T00:34:26;3.95;;;3.58;;
9821;SDS011;4950;46.042;14.472;2022-08-30T00:36:53;4.10;;;3.58;;
9821;SDS011;4950;46.042;14.472;2022-08-30T00:39:21;4.22;;;3.80;;
9821;SDS011;4950;46.042;14.472;2022-08-30T00:41:47;4.03;;;3.33;;
9821;SDS011;4950;46.042;14.472;2022-08-30T00:44:14;4.13;;;3.72;;
9821;SDS011;4950;46.042;14.472;2022-08-30T00:46:41;5.55;;;4.20;;
9821;SDS011;4950;46.042;14.472;2022-08-30T00:49:08;5.75;;;3.78;;
9821;SDS011;4950;46.042;14.472;2022-08-30T00:51:38;4.47;;;3.90;;
9821;SDS011;4950;46.042;14.472;2022-08-30T00:54:06;3.35;;;3.10;;
9821;SDS011;4950;46.042;14.472;2022-08-30T00:56:34;4.38;;;3.28;;
9821;SDS011;4950;46.042;14.472;2022-08-30T00:59:02;6.97;;;3.65;;
9821;SDS011;4950;46.042;14.472;2022-08-30T01:01:30;3.85;;;3.45;;
9821;SDS011;4950;46.042;14.472;2022-08-30T01:03:57;3.95;;;3.50;;
9821;SDS011;4950;46.042;14.472;2022-08-30T01:06:25;4.88;;;3.58;;
9821;SDS011;4950;46.042;14.472;2022-08-30T01:08:52;4.30;;;3.58;;
9821;SDS011;4950;46.042;14.472;2022-08-30T01:11:20;4.25;;;3.65;;
9821;SDS011;4950;46.042;14.472;2022-08-30T01:13:49;4.00;;;3.70;;
9821;SDS011;4950;46.042;14.472;2022-08-30T01:16:19;3.92;;;3.53;;
9821;SDS011;4950;46.042;14.472;2022-08-30T01:18:47;4.18;;;3.78;;
9821;SDS011;4950;46.042;14.472;2022-08-30T01:21:16;4.25;;;3.78;;
9821;SDS011;4950;46.042;14.472;2022-08-30T01:23:49;4.57;;;3.90;;
9821;SDS011;4950;46.042;14.472;2022-08-30T01:26:18;6.50;;;3.70;;
9821;SDS011;4950;46.042;14.472;2022-08-30T01:28:46;4.80;;;3.95;;
9821;SDS011;4950;46.042;14.472;2022-08-30T01:31:15;4.43;;;3.70;;
9821;SDS011;4950;46.042;14.472;2022-08-30T01:33:43;4.70;;;3.80;;
9821;SDS011;4950;46.042;14.472;2022-08-30T01:36:10;4.47;;;3.67;;
9821;SDS011;4950;46.042;14.472;2022-08-30T01:38:41;3.63;;;3.33;;
9821;SDS011;4950;46.042;14.472;2022-08-30T01:41:13;4.13;;;3.72;;
9821;SDS011;4950;46.042;14.472;2022-08-30T01:43:42;3.65;;;3.35;;
9821;SDS011;4950;46.042;14.472;2022-08-30T01:46:09;3.67;;;3.38;;
9821;SDS011;4950;46.042;14.472;2022-08-30T01:48:38;5.13;;;3.75;;
9821;SDS011;4950;46.042;14.472;2022-08-30T01:51:08;4.82;;;4.03;;
9821;SDS011;4950;46.042;14.472;2022-08-30T01:53:36;4.40;;;4.00;;
9821;SDS011;4950;46.042;14.472;2022-08-30T01:56:02;4.28;;;3.83;;
9821;SDS011;4950;46.042;14.472;2022-08-30T01:58:31;4.00;;;3.60;;
9821;SDS011;4950;46.042;14.472;2022-08-30T02:00:57;3.92;;;3.60;;
9821;SDS011;4950;46.042;14.472;2022-08-30T02:03:24;3.97;;;3.58;;
9821;SDS011;4950;46.042;14.472;2022-08-30T02:05:54;6.15;;;3.70;;
9821;SDS011;4950;46.042;14.472;2022-08-30T02:08:21;5.53;;;3.60;;
9821;SDS011;4950;46.042;14.472;2022-08-30T02:10:47;5.43;;;4.20;;
9821;SDS011;4950;46.042;14.472;2022-08-30T02:13:14;4.40;;;3.92;;
9821;SDS011;4950;46.042;14.472;2022-08-30T02:15:42;3.85;;;3.45;;
9821;SDS011;4950;46.042;14.472;2022-08-30T02:18:09;4.68;;;3.97;;
9821;SDS011;4950;46.042;14.472;2022-08-30T02:20:36;4.00;;;3.58;;
9821;SDS011;4950;46.042;14.472;2022-08-30T02:23:03;4.47;;;3.75;;
9821;SDS011;4950;46.042;14.472;2022-08-30T02:25:30;4.18;;;3.75;;
9821;SDS011;4950;46.042;14.472;2022-08-30T02:27:56;4.65;;;3.70;;
9821;SDS011;4950;46.042;14.472;2022-08-30T02:30:23;3.80;;;3.25;;
9821;SDS011;4950;46.042;14.472;2022-08-30T02:32:51;6.03;;;3.95;;
9821;SDS011;4950;46.042;14.472;2022-08-30T02:35:18;4.65;;;4.25;;
9821;SDS011;4950;46.042;14.472;2022-08-30T02:37:44;4.30;;;3.90;;
9821;SDS011;4950;46.042;14.472;2022-08-30T02:40:11;4.30;;;3.55;;
9821;SDS011;4950;46.042;14.472;2022-08-30T02:42:38;12.20;;;3.60;;
9821;SDS011;4950;46.042;14.472;2022-08-30T02:45:06;4.28;;;3.53;;
9821;SDS011;4950;46.042;14.472;2022-08-30T02:47:34;4.30;;;3.90;;
9821;SDS011;4950;46.042;14.472;2022-08-30T02:50:02;4.38;;;3.47;;
9821;SDS011;4950;46.042;14.472;2022-08-30T02:52:29;4.75;;;3.80;;
9821;SDS011;4950;46.042;14.472;2022-08-30T02:54:55;8.60;;;4.82;;
9821;SDS011;4950;46.042;14.472;2022-08-30T02:57:22;5.95;;;4.30;;
9821;SDS011;4950;46.042;14.472;2022-08-30T02:59:49;6.70;;;4.68;;
9821;SDS011;4950;46.042;14.472;2022-08-30T03:02:15;5.47;;;4.43;;
9821;SDS011;4950;46.042;14.472;2022-08-30T03:04:42;4.57;;;4.13;;
9821;SDS011;4950;46.042;14.472;2022-08-30T03:07:11;5.50;;;5.00;;
9821;SDS011;4950;46.042;14.472;2022-08-30T03:09:38;6.38;;;4.65;;
9821;SDS011;4950;46.042;14.472;2022-08-30T03:12:05;4.95;;;4.25;;
9821;SDS011;4950;46.042;14.472;2022-08-30T03:14:32;5.78;;;4.13;;
9821;SDS011;4950;46.042;14.472;2022-08-30T03:17:00;5.22;;;4.22;;
9821;SDS011;4950;46.042;14.472;2022-08-30T03:19:28;4.47;;;3.95;;
9821;SDS011;4950;46.042;14.472;2022-08-30T03:21:55;4.40;;;3.65;;
9821;SDS011;4950;46.042;14.472;2022-08-30T03:24:23;4.40;;;3.75;;
9821;SDS011;4950;46.042;14.472;2022-08-30T03:26:50;5.55;;;3.92;;
9821;SDS011;4950;46.042;14.472;2022-08-30T03:29:17;6.47;;;3.95;;
9821;SDS011;4950;46.042;14.472;2022-08-30T03:31:44;4.63;;;3.70;;
9821;SDS011;4950;46.042;14.472;2022-08-30T03:34:10;5.15;;;3.80;;
9821;SDS011;4950;46.042;14.472;2022-08-30T03:36:37;3.90;;;3.60;;
9821;SDS011;4950;46.042;14.472;2022-08-30T03:39:04;5.78;;;4.15;;
9821;SDS011;4950;46.042;14.472;2022-08-30T03:41:32;7.47;;;4.68;;
9821;SDS011;4950;46.042;14.472;2022-08-30T03:44:00;7.18;;;5.00;;
9821;SDS011;4950;46.042;14.472;2022-08-30T03:46:27;5.60;;;4.78;;
9821;SDS011;4950;46.042;14.472;2022-08-30T03:48:54;5.80;;;5.20;;
9821;SDS011;4950;46.042;14.472;2022-08-30T03:51:21;5.22;;;4.40;;
9821;SDS011;4950;46.042;14.472;2022-08-30T03:53:48;6.47;;;4.13;;
9821;SDS011;4950;46.042;14.472;2022-08-30T03:56:15;6.07;;;4.20;;
9821;SDS011;4950;46.042;14.472;2022-08-30T03:58:43;5.68;;;4.22;;
9821;SDS011;4950;46.042;14.472;2022-08-30T04:01:10;4.95;;;4.45;;
9821;SDS011;4950;46.042;14.472;2022-08-30T04:03:37;6.28;;;4.38;;
9821;SDS011;4950;46.042;14.472;2022-08-30T04:06:04;7.20;;;4.25;;
9821;SDS011;4950;46.042;14.472;2022-08-30T04:08:31;4.47;;;3.92;;
9821;SDS011;4950;46.042;14.472;2022-08-30T04:10:57;7.65;;;4.20;;
9821;SDS011;4950;46.042;14.472;2022-08-30T04:13:26;4.72;;;4.00;;
9821;SDS011;4950;46.042;14.472;2022-08-30T04:15:55;5.47;;;4.13;;
9821;SDS011;4950;46.042;14.472;2022-08-30T04:18:21;4.85;;;4.38;;
9821;SDS011;4950;46.042;14.472;2022-08-30T04:20:49;5.78;;;4.22;;
9821;SDS011;4950;46.042;14.472;2022-08-30T04:23:16;4.40;;;4.00;;
9821;SDS011;4950;46.042;14.472;2022-08-30T04:25:44;6.00;;;4.30;;
9821;SDS011;4950;46.042;14.472;2022-08-30T04:28:11;6.13;;;4.30;;
9821;SDS011;4950;46.042;14.472;2022-08-30T04:30:37;6.30;;;4.50;;
9821;SDS011;4950;46.042;14.472;2022-08-30T04:33:07;6.05;;;4.82;;
9821;SDS011;4950;46.042;14.472;2022-08-30T04:35:34;8.68;;;6.07;;
9821;SDS011;4950;46.042;14.472;2022-08-30T04:38:00;8.25;;;7.03;;
9821;SDS011;4950;46.042;14.472;2022-08-30T04:40:28;9.65;;;6.45;;
9821;SDS011;4950;46.042;14.472;2022-08-30T04:42:54;8.18;;;6.50;;
9821;SDS011;4950;46.042;14.472;2022-08-30T04:45:23;6.88;;;6.13;;
9821;SDS011;4950;46.042;14.472;2022-08-30T04:47:50;7.93;;;6.20;;
9821;SDS011;4950;46.042;14.472;2022-08-30T04:50:18;8.50;;;6.75;;
9821;SDS011;4950;46.042;14.472;2022-08-30T04:52:46;9.15;;;6.80;;
9821;SDS011;4950;46.042;14.472;2022-08-30T04:55:13;9.07;;;7.82;;
9821;SDS011;4950;46.042;14.472;2022-08-30T04:57:41;13.23;;;9.30;;
9821;SDS011;4950;46.042;14.472;2022-08-30T05:00:09;12.70;;;10.32;;
9821;SDS011;4950;46.042;14.472;2022-08-30T05:02:38;11.18;;;9.63;;
9821;SDS011;4950;46.042;14.472;2022-08-30T05:05:06;13.30;;;9.30;;
9821;SDS011;4950;46.042;14.472;2022-08-30T05:07:52;15.10;;;10.18;;
9821;SDS011;4950;46.042;14.472;2022-08-30T05:10:19;32.03;;;20.52;;
9821;SDS011;4950;46.042;14.472;2022-08-30T05:12:46;26.58;;;18.77;;
9821;SDS011;4950;46.042;14.472;2022-08-30T05:15:12;21.25;;;15.68;;
9821;SDS011;4950;46.042;14.472;2022-08-30T05:17:39;15.73;;;12.63;;
9821;SDS011;4950;46.042;14.472;2022-08-30T05:20:07;16.08;;;13.27;;
9821;SDS011;4950;46.042;14.472;2022-08-30T05:22:36;11.98;;;10.55;;
9821;SDS011;4950;46.042;14.472;2022-08-30T05:25:06;11.57;;;10.38;;
9821;SDS011;4950;46.042;14.472;2022-08-30T05:27:33;11.35;;;10.25;;
9821;SDS011;4950;46.042;14.472;2022-08-30T05:30:00;11.13;;;10.02;;
9821;SDS011;4950;46.042;14.472;2022-08-30T05:32:27;10.63;;;9.57;;
9821;SDS011;4950;46.042;14.472;2022-08-30T05:34:53;11.30;;;10.25;;
9821;SDS011;4950;46.042;14.472;2022-08-30T05:37:20;12.40;;;10.98;;
9821;SDS011;4950;46.042;14.472;2022-08-30T05:39:47;12.20;;;11.00;;
9821;SDS011;4950;46.042;14.472;2022-08-30T05:42:17;13.68;;;11.73;;
9821;SDS011;4950;46.042;14.472;2022-08-30T05:44:44;12.30;;;11.05;;
9821;SDS011;4950;46.042;14.472;2022-08-30T05:47:11;15.70;;;12.95;;
9821;SDS011;4950;46.042;14.472;2022-08-30T05:49:38;14.75;;;13.30;;
9821;SDS011;4950;46.042;14.472;2022-08-30T05:52:05;13.00;;;11.55;;
9821;SDS011;4950;46.042;14.472;2022-08-30T05:54:31;15.98;;;13.75;;
9821;SDS011;4950;46.042;14.472;2022-08-30T05:56:58;13.13;;;11.77;;
9821;SDS011;4950;46.042;14.472;2022-08-30T05:59:26;11.98;;;10.77;;
9821;SDS011;4950;46.042;14.472;2022-08-30T06:01:55;12.25;;;11.05;;
9821;SDS011;4950;46.042;14.472;2022-08-30T06:04:23;11.95;;;10.75;;
9821;SDS011;4950;46.042;14.472;2022-08-30T06:06:49;10.77;;;9.68;;
9821;SDS011;4950;46.042;14.472;2022-08-30T06:09:16;10.80;;;9.80;;
9821;SDS011;4950;46.042;14.472;2022-08-30T06:11:43;12.50;;;9.82;;
9821;SDS011;4950;46.042;14.472;2022-08-30T06:14:12;13.43;;;11.88;;
9821;SDS011;4950;46.042;14.472;2022-08-30T06:16:40;13.90;;;12.23;;
9821;SDS011;4950;46.042;14.472;2022-08-30T06:19:09;14.75;;;11.73;;
9821;SDS011;4950;46.042;14.472;2022-08-30T06:21:37;16.10;;;13.98;;
9821;SDS011;4950;46.042;14.472;2022-08-30T06:24:05;19.98;;;16.60;;
9821;SDS011;4950;46.042;14.472;2022-08-30T06:26:35;17.85;;;16.13;;
9821;SDS011;4950;46.042;14.472;2022-08-30T06:29:04;18.75;;;16.85;;
9821;SDS011;4950;46.042;14.472;2022-08-30T06:31:31;21.20;;;19.05;;
9821;SDS011;4950;46.042;14.472;2022-08-30T06:33:59;20.48;;;18.20;;
9821;SDS011;4950;46.042;14.472;2022-08-30T06:36:26;18.60;;;16.80;;
9821;SDS011;4950;46.042;14.472;2022-08-30T06:38:53;18.83;;;16.90;;
9821;SDS011;4950;46.042;14.472;2022-08-30T06:41:21;22.25;;;16.58;;
9821;SDS011;4950;46.042;14.472;2022-08-30T06:43:49;17.88;;;15.90;;
9821;SDS011;4950;46.042;14.472;2022-08-30T06:46:16;23.27;;;15.13;;
9821;SDS011;4950;46.042;14.472;2022-08-30T06:48:44;21.48;;;14.65;;
9821;SDS011;4950;46.042;14.472;2022-08-30T06:51:13;23.52;;;15.63;;
9821;SDS011;4950;46.042;14.472;2022-08-30T06:53:39;23.23;;;16.25;;
9821;SDS011;4950;46.042;14.472;2022-08-30T06:56:07;19.65;;;15.10;;
9821;SDS011;4950;46.042;14.472;2022-08-30T06:58:37;16.35;;;14.25;;
9821;SDS011;4950;46.042;14.472;2022-08-30T07:01:05;16.52;;;14.82;;
9821;SDS011;4950;46.042;14.472;2022-08-30T07:03:33;23.90;;;16.42;;
9821;SDS011;4950;46.042;14.472;2022-08-30T07:06:00;21.55;;;16.33;;
9821;SDS011;4950;46.042;14.472;2022-08-30T07:08:28;17.30;;;15.50;;
9821;SDS011;4950;46.042;14.472;2022-08-30T07:10:55;17.13;;;15.32;;
9821;SDS011;4950;46.042;14.472;2022-08-30T07:13:22;23.42;;;15.50;;
9821;SDS011;4950;46.042;14.472;2022-08-30T07:15:49;16.17;;;14.45;;
9821;SDS011;4950;46.042;14.472;2022-08-30T07:18:17;15.80;;;14.10;;
9821;SDS011;4950;46.042;14.472;2022-08-30T07:21:04;19.60;;;15.38;;
9821;SDS011;4950;46.042;14.472;2022-08-30T07:23:34;16.33;;;13.68;;
9821;SDS011;4950;46.042;14.472;2022-08-30T07:26:02;18.25;;;16.45;;
9821;SDS011;4950;46.042;14.472;2022-08-30T07:28:29;16.95;;;15.05;;
9821;SDS011;4950;46.042;14.472;2022-08-30T07:30:56;16.48;;;14.80;;
9821;SDS011;4950;46.042;14.472;2022-08-30T07:33:23;17.38;;;14.80;;
9821;SDS011;4950;46.042;14.472;2022-08-30T07:35:50;18.75;;;15.35;;
9821;SDS011;4950;46.042;14.472;2022-08-30T07:38:17;16.77;;;15.15;;
9821;SDS011;4950;46.042;14.472;2022-08-30T07:40:46;19.92;;;14.85;;
9821;SDS011;4950;46.042;14.472;2022-08-30T07:43:13;16.05;;;14.38;;
9821;SDS011;4950;46.042;14.472;2022-08-30T07:45:39;17.27;;;15.10;;
9821;SDS011;4950;46.042;14.472;2022-08-30T07:48:06;16.65;;;14.23;;
9821;SDS011;4950;46.042;14.472;2022-08-30T07:50:35;13.85;;;12.45;;
9821;SDS011;4950;46.042;14.472;2022-08-30T07:53:03;13.35;;;12.05;;
9821;SDS011;4950;46.042;14.472;2022-08-30T07:55:30;19.73;;;13.77;;
9821;SDS011;4950;46.042;14.472;2022-08-30T07:57:58;14.00;;;12.27;;
9821;SDS011;4950;46.042;14.472;2022-08-30T08:00:24;16.45;;;12.70;;
9821;SDS011;4950;46.042;14.472;2022-08-30T08:02:51;14.70;;;13.02;;
9821;SDS011;4950;46.042;14.472;2022-08-30T08:05:18;13.25;;;11.90;;
9821;SDS011;4950;46.042;14.472;2022-08-30T08:07:45;14.07;;;11.65;;
9821;SDS011;4950;46.042;14.472;2022-08-30T08:10:12;12.32;;;10.38;;
9821;SDS011;4950;46.042;14.472;2022-08-30T08:12:40;16.30;;;11.15;;
9821;SDS011;4950;46.042;14.472;2022-08-30T08:15:08;18.60;;;11.65;;
9821;SDS011;4950;46.042;14.472;2022-08-30T08:17:36;15.50;;;11.15;;
9821;SDS011;4950;46.042;14.472;2022-08-30T08:20:03;15.93;;;11.38;;
9821;SDS011;4950;46.042;14.472;2022-08-30T08:22:30;11.57;;;10.38;;
9821;SDS011;4950;46.042;14.472;2022-08-30T08:24:56;13.23;;;9.73;;
9821;SDS011;4950;46.042;14.472;2022-08-30T08:27:23;9.80;;;8.80;;
9821;SDS011;4950;46.042;14.472;2022-08-30T08:29:50;10.88;;;8.02;;
9821;SDS011;4950;46.042;14.472;2022-08-30T08:32:18;9.82;;;7.63;;
9821;SDS011;4950;46.042;14.472;2022-08-30T08:34:44;10.23;;;8.23;;
9821;SDS011;4950;46.042;14.472;2022-08-30T08:37:11;10.32;;;8.00;;
9821;SDS011;4950;46.042;14.472;2022-08-30T08:39:38;8.93;;;7.68;;
9821;SDS011;4950;46.042;14.472;2022-08-30T08:42:06;9.27;;;7.80;;
9821;SDS011;4950;46.042;14.472;2022-08-30T08:44:44;8.50;;;7.40;;
9821;SDS011;4950;46.042;14.472;2022-08-30T08:47:19;7.43;;;6.72;;
9821;SDS011;4950;46.042;14.472;2022-08-30T08:49:55;7.78;;;6.32;;
9821;SDS011;4950;46.042;14.472;2022-08-30T08:52:28;5.65;;;4.68;;
9821;SDS011;4950;46.042;14.472;2022-08-30T08:55:25;6.00;;;4.18;;
9821;SDS011;4950;46.042;14.472;2022-08-30T08:57:55;5.80;;;4.68;;
9821;SDS011;4950;46.042;14.472;2022-08-30T09:00:23;4.63;;;4.00;;
9821;SDS011;4950;46.042;14.472;2022-08-30T09:02:54;4.57;;;4.10;;
9821;SDS011;4950;46.042;14.472;2022-08-30T09:05:24;5.43;;;4.20;;
9821;SDS011;4950;46.042;14.472;2022-08-30T09:07:54;5.63;;;4.13;;
9821;SDS011;4950;46.042;14.472;2022-08-30T09:10:26;4.07;;;3.67;;
9821;SDS011;4950;46.042;14.472;2022-08-30T09:12:59;5.75;;;4.13;;
9821;SDS011;4950;46.042;14.472;2022-08-30T09:15:28;7.50;;;3.97;;
9821;SDS011;4950;46.042;14.472;2022-08-30T09:17:59;5.40;;;4.38;;
9821;SDS011;4950;46.042;14.472;2022-08-30T09:20:29;6.68;;;4.53;;
9821;SDS011;4950;46.042;14.472;2022-08-30T09:23:17;6.50;;;4.32;;
9821;SDS011;4950;46.042;14.472;2022-08-30T09:25:51;4.80;;;4.03;;
9821;SDS011;4950;46.042;14.472;2022-08-30T09:28:30;6.97;;;4.63;;
9821;SDS011;4950;46.042;14.472;2022-08-30T09:30:59;6.20;;;4.90;;
9821;SDS011;4950;46.042;14.472;2022-08-30T09:33:33;5.50;;;4.50;;
9821;SDS011;4950;46.042;14.472;2022-08-30T09:36:22;6.03;;;4.70;;
9821;SDS011;4950;46.042;14.472;2022-08-30T09:38:56;6.18;;;4.60;;
9821;SDS011;4950;46.042;14.472;2022-08-30T09:41:33;6.03;;;4.93;;
9821;SDS011;4950;46.042;14.472;2022-08-30T09:44:09;5.82;;;4.72;;
9821;SDS011;4950;46.042;14.472;2022-08-30T09:46:42;4.47;;;4.07;;
9821;SDS011;4950;46.042;14.472;2022-08-30T09:49:38;7.15;;;4.85;;
9821;SDS011;4950;46.042;14.472;2022-08-30T09:52:16;5.25;;;4.70;;
9821;SDS011;4950;46.042;14.472;2022-08-30T09:54:58;6.22;;;4.57;;
9821;SDS011;4950;46.042;14.472;2022-08-30T09:57:35;4.43;;;4.00;;
9821;SDS011;4950;46.042;14.472;2022-08-30T10:00:12;5.18;;;4.57;;
9821;SDS011;4950;46.042;14.472;2022-08-30T10:02:49;6.88;;;4.63;;
9821;SDS011;4950;46.042;14.472;2022-08-30T10:05:45;5.25;;;4.38;;
9821;SDS011;4950;46.042;14.472;2022-08-30T10:08:20;7.05;;;4.50;;
9821;SDS011;4950;46.042;14.472;2022-08-30T10:10:57;4.10;;;3.70;;
9821;SDS011;4950;46.042;14.472;2022-08-30T10:13:30;6.05;;;4.25;;
9821;SDS011;4950;46.042;14.472;2022-08-30T10:16:18;5.55;;;4.22;;
9821;SDS011;4950;46.042;14.472;2022-08-30T10:18:56;4.95;;;4.43;;
9821;SDS011;4950;46.042;14.472;2022-08-30T10:21:36;4.13;;;3.67;;
9821;SDS011;4950;46.042;14.472;2022-08-30T10:24:07;4.53;;;3.65;;
9821;SDS011;4950;46.042;14.472;2022-08-30T10:26:37;3.85;;;3.55;;
9821;SDS011;4950;46.042;14.472;2022-08-30T10:29:11;8.60;;;4.10;;
9821;SDS011;4950;46.042;14.472;2022-08-30T10:31:43;6.03;;;3.83;;
9821;SDS011;4950;46.042;14.472;2022-08-30T10:34:15;3.97;;;3.40;;
9821;SDS011;4950;46.042;14.472;2022-08-30T10:36:51;8.23;;;3.90;;
9821;SDS011;4950;46.042;14.472;2022-08-30T10:39:22;3.78;;;3.47;;
9821;SDS011;4950;46.042;14.472;2022-08-30T10:41:52;4.63;;;3.60;;
9821;SDS011;4950;46.042;14.472;2022-08-30T10:44:25;5.22;;;3.42;;
9821;SDS011;4950;46.042;14.472;2022-08-30T10:47:01;4.75;;;3.58;;
9821;SDS011;4950;46.042;14.472;2022-08-30T10:49:39;4.35;;;3.40;;
9821;SDS011;4950;46.042;14.472;2022-08-30T10:52:23;4.28;;;3.55;;
9821;SDS011;4950;46.042;14.472;2022-08-30T10:54:56;3.40;;;3.10;;
9821;SDS011;4950;46.042;14.472;2022-08-30T10:57:26;3.40;;;3.03;;
9821;SDS011;4950;46.042;14.472;2022-08-30T10:59:53;3.47;;;3.17;;
9821;SDS011;4950;46.042;14.472;2022-08-30T11:02:30;3.72;;;3.00;;
9821;SDS011;4950;46.042;14.472;2022-08-30T11:05:19;4.68;;;3.10;;
9821;SDS011;4950;46.042;14.472;2022-08-30T11:07:58;3.35;;;2.78;;
9821;SDS011;4950;46.042;14.472;2022-08-30T11:10:38;4.15;;;2.75;;
9821;SDS011;4950;46.042;14.472;2022-08-30T11:13:12;3.97;;;2.70;;
9821;SDS011;4950;46.042;14.472;2022-08-30T11:15:54;6.57;;;2.42;;
9821;SDS011;4950;46.042;14.472;2022-08-30T11:18:25;3.45;;;2.58;;
9821;SDS011;4950;46.042;14.472;2022-08-30T11:21:14;3.30;;;3.00;;
9821;SDS011;4950;46.042;14.472;2022-08-30T11:23:57;3.92;;;2.67;;
9821;SDS011;4950;46.042;14.472;2022-08-30T11:29:27;2.85;;;2.55;;
9821;SDS011;4950;46.042;14.472;2022-08-30T11:32:55;3.28;;;2.70;;
9821;SDS011;4950;46.042;14.472;2022-08-30T11:35:36;3.90;;;2.75;;
9821;SDS011;4950;46.042;14.472;2022-08-30T11:38:19;3.65;;;2.80;;
9821;SDS011;4950;46.042;14.472;2022-08-30T11:41:08;3.03;;;2.40;;
9821;SDS011;4950;46.042;14.472;2022-08-30T11:43:50;2.95;;;2.70;;
9821;SDS011;4950;46.042;14.472;2022-08-30T11:46:20;3.03;;;2.33;;
9821;SDS011;4950;46.042;14.472;2022-08-30T11:49:02;2.60;;;2.40;;
9821;SDS011;4950;46.042;14.472;2022-08-30T11:51:58;2.75;;;2.30;;
9821;SDS011;4950;46.042;14.472;2022-08-30T11:54:36;2.92;;;2.60;;
9821;SDS011;4950;46.042;14.472;2022-08-30T11:57:16;2.40;;;2.20;;
9821;SDS011;4950;46.042;14.472;2022-08-30T12:00:03;2.95;;;2.55;;
9821;SDS011;4950;46.042;14.472;2022-08-30T12:02:51;2.83;;;2.40;;
9821;SDS011;4950;46.042;14.472;2022-08-30T12:14:41;2.40;;;2.20;;
9821;SDS011;4950;46.042;14.472;2022-08-30T12:17:15;3.05;;;2.47;;
9821;SDS011;4950;46.042;14.472;2022-08-30T12:20:04;2.30;;;2.10;;
9821;SDS011;4950;46.042;14.472;2022-08-30T12:22:39;2.88;;;2.67;;
9821;SDS011;4950;46.042;14.472;2022-08-30T12:25:12;2.42;;;2.22;;
9821;SDS011;4950;46.042;14.472;2022-08-30T12:27:42;2.50;;;2.30;;
9821;SDS011;4950;46.042;14.472;2022-08-30T12:30:10;2.80;;;2.60;;
9821;SDS011;4950;46.042;14.472;2022-08-30T12:32:41;2.38;;;2.17;;
9821;SDS011;4950;46.042;14.472;2022-08-30T12:35:17;2.95;;;2.00;;
9821;SDS011;4950;46.042;14.472;2022-08-30T12:37:52;2.42;;;2.00;;
9821;SDS011;4950;46.042;14.472;2022-08-30T12:40:22;2.30;;;1.90;;
9821;SDS011;4950;46.042;14.472;2022-08-30T12:42:51;5.15;;;2.30;;
9821;SDS011;4950;46.042;14.472;2022-08-30T12:45:21;3.30;;;2.25;;
9821;SDS011;4950;46.042;14.472;2022-08-30T12:47:51;2.53;;;2.30;;
9821;SDS011;4950;46.042;14.472;2022-08-30T12:50:23;2.63;;;2.15;;
9821;SDS011;4950;46.042;14.472;2022-08-30T12:52:55;2.70;;;2.30;;
9821;SDS011;4950;46.042;14.472;2022-08-30T12:55:24;3.90;;;2.10;;
9821;SDS011;4950;46.042;14.472;2022-08-30T12:57:55;2.40;;;2.20;;
9821;SDS011;4950;46.042;14.472;2022-08-30T13:00:26;3.00;;;2.40;;
9821;SDS011;4950;46.042;14.472;2022-08-30T13:02:55;3.25;;;2.42;;
9821;SDS011;4950;46.042;14.472;2022-08-30T13:05:27;3.05;;;2.72;;
9821;SDS011;4950;46.042;14.472;2022-08-30T13:08:16;2.58;;;2.35;;
9821;SDS011;4950;46.042;14.472;2022-08-30T13:10:49;2.40;;;2.20;;
9821;SDS011;4950;46.042;14.472;2022-08-30T13:13:26;3.88;;;2.67;;
9821;SDS011;4950;46.042;14.472;2022-08-30T13:16:05;2.95;;;2.22;;
9821;SDS011;4950;46.042;14.472;2022-08-30T13:18:37;3.67;;;2.53;;
9821;SDS011;4950;46.042;14.472;2022-08-30T13:21:11;2.67;;;2.33;;
9821;SDS011;4950;46.042;14.472;2022-08-30T13:23:47;3.30;;;2.50;;
9821;SDS011;4950;46.042;14.472;2022-08-30T13:26:13;2.55;;;2.15;;
9821;SDS011;4950;46.042;14.472;2022-08-30T13:28:41;2.50;;;2.30;;
9821;SDS011;4950;46.042;14.472;2022-08-30T13:31:10;4.25;;;2.35;;
9821;SDS011;4950;46.042;14.472;2022-08-30T13:33:37;2.50;;;2.30;;
9821;SDS011;4950;46.042;14.472;2022-08-30T13:36:03;2.83;;;2.33;;
9821;SDS011;4950;46.042;14.472;2022-08-30T13:38:30;3.33;;;2.75;;
9821;SDS011;4950;46.042;14.472;2022-08-30T13:40:57;2.78;;;2.20;;
9821;SDS011;4950;46.042;14.472;2022-08-30T13:43:23;2.42;;;2.22;;
9821;SDS011;4950;46.042;14.472;2022-08-30T13:45:50;3.80;;;2.20;;
9821;SDS011;4950;46.042;14.472;2022-08-30T13:48:18;2.50;;;2.30;;
9821;SDS011;4950;46.042;14.472;2022-08-30T13:50:45;3.67;;;2.53;;
9821;SDS011;4950;46.042;14.472;2022-08-30T13:53:11;2.90;;;2.60;;
9821;SDS011;4950;46.042;14.472;2022-08-30T13:55:38;2.60;;;2.40;;
9821;SDS011;4950;46.042;14.472;2022-08-30T13:58:06;2.88;;;2.60;;
9821;SDS011;4950;46.042;14.472;2022-08-30T14:00:33;4.07;;;2.65;;
9821;SDS011;4950;46.042;14.472;2022-08-30T14:03:00;2.60;;;2.40;;
9821;SDS011;4950;46.042;14.472;2022-08-30T14:05:30;2.97;;;2.30;;
9821;SDS011;4950;46.042;14.472;2022-08-30T14:07:58;3.75;;;2.78;;
9821;SDS011;4950;46.042;14.472;2022-08-30T14:10:26;3.05;;;2.55;;
9821;SDS011;4950;46.042;14.472;2022-08-30T14:12:53;3.45;;;2.40;;
9821;SDS011;4950;46.042;14.472;2022-08-30T14:15:20;3.75;;;2.13;;
9821;SDS011;4950;46.042;14.472;2022-08-30T14:17:47;2.60;;;2.40;;
9821;SDS011;4950;46.042;14.472;2022-08-30T14:20:13;2.47;;;2.28;;
9821;SDS011;4950;46.042;14.472;2022-08-30T14:22:41;3.78;;;2.25;;
9821;SDS011;4950;46.042;14.472;2022-08-30T14:25:08;4.25;;;2.78;;
9821;SDS011;4950;46.042;14.472;2022-08-30T14:27:35;2.55;;;2.35;;
9821;SDS011;4950;46.042;14.472;2022-08-30T14:30:02;3.90;;;2.58;;
9821;SDS011;4950;46.042;14.472;2022-08-30T14:32:30;3.20;;;2.45;;
9821;SDS011;4950;46.042;14.472;2022-08-30T14:34:56;2.50;;;2.30;;
9821;SDS011;4950;46.042;14.472;2022-08-30T14:37:23;3.75;;;2.72;;
9821;SDS011;4950;46.042;14.472;2022-08-30T14:39:51;5.30;;;2.58;;
9821;SDS011;4950;46.042;14.472;2022-08-30T14:42:18;2.83;;;2.38;;
9821;SDS011;4950;46.042;14.472;2022-08-30T14:44:45;5.63;;;2.60;;
9821;SDS011;4950;46.042;14.472;2022-08-30T14:47:11;3.50;;;2.55;;
9821;SDS011;4950;46.042;14.472;2022-08-30T14:49:38;3.60;;;2.75;;
9821;SDS011;4950;46.042;14.472;2022-08-30T14:52:05;3.00;;;2.60;;
9821;SDS011;4950;46.042;14.472;2022-08-30T14:54:31;3.35;;;2.70;;
9821;SDS011;4950;46.042;14.472;2022-08-30T14:57:00;3.53;;;2.42;;
9821;SDS011;4950;46.042;14.472;2022-08-30T14:59:26;2.47;;;2.28;;
9821;SDS011;4950;46.042;14.472;2022-08-30T15:01:53;2.72;;;2.22;;
9821;SDS011;4950;46.042;14.472;2022-08-30T15:04:20;4.38;;;2.47;;
9821;SDS011;4950;46.042;14.472;2022-08-30T15:06:47;4.57;;;2.47;;
9821;SDS011;4950;46.042;14.472;2022-08-30T15:09:14;2.33;;;2.13;;
9821;SDS011;4950;46.042;14.472;2022-08-30T15:11:44;3.03;;;2.70;;
9821;SDS011;4950;46.042;14.472;2022-08-30T15:14:13;2.35;;;2.15;;
9821;SDS011;4950;46.042;14.472;2022-08-30T15:16:40;4.07;;;2.72;;
9821;SDS011;4950;46.042;14.472;2022-08-30T15:19:08;2.85;;;2.55;;
9821;SDS011;4950;46.042;14.472;2022-08-30T15:21:37;3.13;;;2.72;;
9821;SDS011;4950;46.042;14.472;2022-08-30T15:24:06;2.72;;;2.50;;
9821;SDS011;4950;46.042;14.472;2022-08-30T15:26:33;4.53;;;2.58;;